createdAt,value
2023-02-15T00:02:42.724Z,100.00
2023-02-15T00:07:47.299Z,100.00
2023-02-15T00:12:50.385Z,100.00
2023-02-15T00:17:53.669Z,100.00
2023-02-15T00:22:58.193Z,100.00
2023-02-15T00:28:02.507Z,100.00
2023-02-15T00:33:05.700Z,100.00
2023-02-15T00:38:10.392Z,100.00
2023-02-15T00:43:13.498Z,100.00
2023-02-15T00:48:16.754Z,100.00
2023-02-15T00:53:21.949Z,100.00
2023-02-15T00:58:25.528Z,100.00
2023-02-15T01:03:28.741Z,100.00
2023-02-15T01:08:33.570Z,100.00
2023-02-15T01:13:38.168Z,100.00
2023-02-15T01:18:41.408Z,100.00
2023-02-15T01:23:47.192Z,100.00
2023-02-15T01:28:50.472Z,100.00
2023-02-15T01:33:53.569Z,100.00
2023-02-15T01:38:58.248Z,100.00
2023-02-15T01:44:03.208Z,100.00
2023-02-15T01:49:13.045Z,100.00
2023-02-15T01:54:25.791Z,100.00
2023-02-15T01:59:30.647Z,100.00
2023-02-15T02:04:41.225Z,100.00
2023-02-15T02:09:47.181Z,100.00
2023-02-15T02:14:53.530Z,100.00
2023-02-15T02:20:29.180Z,100.00
2023-02-15T02:26:00.695Z,100.00
2023-02-15T02:31:41.541Z,100.00
2023-02-15T02:36:55.189Z,100.00
2023-02-15T02:42:03.294Z,100.00
2023-02-15T02:47:11.470Z,100.00
2023-02-15T02:52:38.673Z,100.00
2023-02-15T02:57:49.032Z,100.00
2023-02-15T03:02:59.366Z,100.00
2023-02-15T03:08:07.227Z,100.00
2023-02-15T03:13:11.439Z,100.00
2023-02-15T03:18:15.142Z,100.00
2023-02-15T03:23:24.188Z,100.00
2023-02-15T03:28:33.287Z,100.00
2023-02-15T03:33:38.598Z,100.00
2023-02-15T03:38:50.304Z,100.00
2023-02-15T03:43:56.624Z,100.00
2023-02-15T03:49:05.100Z,100.00
2023-02-15T03:54:13.565Z,100.00
2023-02-15T03:59:34.199Z,100.00
2023-02-15T04:04:39.118Z,100.00
2023-02-15T04:10:01.600Z,100.00
2023-02-15T04:15:22.879Z,100.00
2023-02-15T04:20:43.614Z,100.00
2023-02-15T04:25:48.174Z,100.00
2023-02-15T04:30:51.420Z,100.00
2023-02-15T04:35:54.653Z,100.00
2023-02-15T04:40:59.148Z,100.00
2023-02-15T04:46:02.594Z,100.00
2023-02-15T04:51:08.568Z,100.00
2023-02-15T04:56:13.295Z,100.00
2023-02-15T05:01:16.778Z,100.00
2023-02-15T05:06:20.085Z,100.00
2023-02-15T05:11:24.636Z,100.00
2023-02-15T05:16:28.813Z,100.00
2023-02-15T05:21:32.369Z,100.00
2023-02-15T05:26:54.034Z,100.00
2023-02-15T05:31:57.541Z,100.00
2023-02-15T05:37:00.728Z,100.00
2023-02-15T05:42:05.928Z,100.00
2023-02-15T05:47:09.228Z,100.00
2023-02-15T05:52:13.393Z,100.00
2023-02-15T05:57:17.996Z,100.00
2023-02-15T06:02:21.277Z,100.00
2023-02-15T06:07:24.441Z,100.00
2023-02-15T06:12:29.055Z,100.00
2023-02-15T06:17:32.392Z,100.00
2023-02-15T06:22:35.452Z,100.00
2023-02-15T06:27:42.856Z,100.00
2023-02-15T06:32:46.511Z,100.00
2023-02-15T06:37:50.232Z,100.00
2023-02-15T06:42:55.901Z,100.00
2023-02-15T06:48:27.017Z,100.00
2023-02-15T06:53:30.680Z,100.00
2023-02-15T06:58:37.292Z,100.00
2023-02-15T07:03:41.316Z,100.00
2023-02-15T07:08:45.428Z,100.00
2023-02-15T07:13:50.283Z,100.00
2023-02-15T07:18:53.703Z,100.00
2023-02-15T07:23:58.841Z,100.00
2023-02-15T07:29:06.696Z,100.00
2023-02-15T07:34:10.089Z,100.00
2023-02-15T07:39:13.831Z,100.00
2023-02-15T07:44:18.823Z,100.00
2023-02-15T07:49:22.908Z,100.00
2023-02-15T07:54:26.461Z,100.00
2023-02-15T07:59:32.080Z,100.00
2023-02-15T08:04:35.804Z,100.00
2023-02-15T08:09:44.018Z,100.00
2023-02-15T08:14:56.205Z,100.00
2023-02-15T08:20:02.319Z,100.00
2023-02-15T08:25:07.368Z,100.00
2023-02-15T08:30:15.384Z,98.54
2023-02-15T08:35:19.128Z,95.41
2023-02-15T08:40:22.527Z,97.70
2023-02-15T08:45:27.447Z,98.54
2023-02-15T08:50:30.689Z,99.00
2023-02-15T08:55:34.012Z,99.51
2023-02-15T09:00:38.565Z,94.66
2023-02-15T09:05:41.994Z,94.21
2023-02-15T09:10:45.124Z,93.10
2023-02-15T09:15:49.795Z,92.55
2023-02-15T09:20:52.929Z,92.06
2023-02-15T09:25:56.224Z,90.97
2023-02-15T09:31:07.103Z,88.82
2023-02-15T09:36:18.263Z,88.93
2023-02-15T09:41:35.263Z,88.08
2023-02-15T09:47:12.573Z,86.23
2023-02-15T09:52:30.068Z,86.77
2023-02-15T09:57:46.526Z,85.90
2023-02-15T10:03:14.155Z,85.27
2023-02-15T10:08:43.005Z,82.17
2023-02-15T10:13:52.783Z,83.56
2023-02-15T10:19:07.060Z,81.86
2023-02-15T10:24:32.715Z,81.50
2023-02-15T10:29:39.157Z,81.83
2023-02-15T10:34:52.650Z,81.40
2023-02-15T10:40:04.061Z,79.37
2023-02-15T10:45:20.342Z,78.02
2023-02-15T10:50:35.217Z,76.99
2023-02-15T10:55:49.407Z,77.07
2023-02-15T11:01:02.548Z,75.62
2023-02-15T11:06:11.390Z,77.22
2023-02-15T11:11:22.226Z,76.87
2023-02-15T11:16:30.491Z,76.83
2023-02-15T11:21:40.238Z,77.63
2023-02-15T11:26:46.061Z,77.73
2023-02-15T11:31:54.523Z,76.78
2023-02-15T11:37:04.468Z,77.21
2023-02-15T11:42:15.308Z,77.17
2023-02-15T11:47:18.627Z,77.42
2023-02-15T11:52:23.467Z,77.82
2023-02-15T11:57:35.333Z,76.87
2023-02-15T12:02:41.062Z,76.92
2023-02-15T12:07:49.271Z,76.18
2023-02-15T12:13:12.836Z,76.63
2023-02-15T12:18:36.194Z,75.04
2023-02-15T12:23:52.894Z,74.21
2023-02-15T12:29:02.659Z,74.65
2023-02-15T12:34:14.650Z,73.81
2023-02-15T12:39:28.653Z,73.68
2023-02-15T12:44:34.109Z,74.14
2023-02-15T12:49:38.373Z,73.29
2023-02-15T12:54:44.941Z,71.08
2023-02-15T13:00:01.768Z,69.22
2023-02-15T13:05:37.792Z,69.30
2023-02-15T13:10:56.780Z,66.42
2023-02-15T13:16:04.476Z,67.05
2023-02-15T13:21:14.502Z,66.05
2023-02-15T13:26:23.024Z,66.25
2023-02-15T13:31:33.338Z,64.49
2023-02-15T13:36:44.438Z,63.96
2023-02-15T13:41:57.120Z,64.24
2023-02-15T13:47:19.180Z,64.20
2023-02-15T13:52:25.443Z,63.91
2023-02-15T13:57:59.982Z,63.54
2023-02-15T14:03:47.022Z,62.57
2023-02-15T14:09:08.677Z,63.12
2023-02-15T14:14:28.235Z,62.65
2023-02-15T14:19:37.554Z,63.40
2023-02-15T14:24:46.282Z,64.08
2023-02-15T14:29:56.135Z,63.04
2023-02-15T14:35:02.193Z,62.46
2023-02-15T14:40:30.366Z,62.35
2023-02-15T14:45:44.989Z,61.59
2023-02-15T14:50:50.142Z,61.75
2023-02-15T14:56:09.620Z,60.25
2023-02-15T15:01:14.314Z,59.82
2023-02-15T15:06:29.514Z,58.75
2023-02-15T15:11:44.621Z,59.93
2023-02-15T15:16:53.528Z,60.28
2023-02-15T15:22:04.169Z,60.62
2023-02-15T15:27:46.040Z,59.83
2023-02-15T15:33:00.103Z,59.90
2023-02-15T15:38:38.389Z,60.75
2023-02-15T15:44:11.350Z,61.71
2023-02-15T15:49:20.125Z,62.02
2023-02-15T15:54:25.377Z,62.26
2023-02-15T15:59:31.628Z,62.87
2023-02-15T16:04:37.427Z,63.72
2023-02-15T16:09:40.944Z,64.07
2023-02-15T16:14:48.371Z,65.70
2023-02-15T16:19:55.457Z,66.28
2023-02-15T16:25:27.634Z,68.16
2023-02-15T16:30:33.790Z,68.24
2023-02-15T16:35:40.755Z,68.74
2023-02-15T16:40:53.473Z,69.46
2023-02-15T16:46:06.042Z,70.41
2023-02-15T16:51:11.725Z,70.10
2023-02-15T16:56:17.113Z,70.83
2023-02-15T17:01:25.064Z,71.65
2023-02-15T17:06:30.517Z,72.54
2023-02-15T17:11:38.413Z,73.23
2023-02-15T17:16:50.167Z,74.19
2023-02-15T17:21:57.823Z,74.51
2023-02-15T17:27:04.792Z,74.70
2023-02-15T17:32:17.330Z,76.14
2023-02-15T17:37:31.168Z,76.18
2023-02-15T17:42:34.570Z,76.34
2023-02-15T17:47:37.964Z,77.48
2023-02-15T17:52:42.844Z,78.66
2023-02-15T17:57:46.132Z,78.62
2023-02-15T18:03:06.731Z,79.41
2023-02-15T18:08:32.156Z,80.91
2023-02-15T18:13:35.372Z,80.98
2023-02-15T18:18:38.719Z,82.59
2023-02-15T18:23:43.578Z,82.63
2023-02-15T18:28:50.213Z,82.80
2023-02-15T18:33:56.084Z,83.97
2023-02-15T18:39:08.438Z,84.38
2023-02-15T18:44:16.557Z,84.23
2023-02-15T18:49:20.297Z,84.96
2023-02-15T18:54:26.973Z,86.03
2023-02-15T18:59:31.289Z,87.51
2023-02-15T19:04:35.141Z,88.40
2023-02-15T19:09:48.558Z,89.45
2023-02-15T19:14:53.144Z,89.78
2023-02-15T19:19:56.512Z,90.89
2023-02-15T19:25:03.818Z,91.09
2023-02-15T19:30:16.722Z,92.68
2023-02-15T19:35:23.266Z,92.25
2023-02-15T19:40:30.357Z,93.50
2023-02-15T19:45:33.763Z,93.87
2023-02-15T19:50:37.009Z,93.70
2023-02-15T19:55:42.175Z,94.99
2023-02-15T20:00:45.479Z,95.23
2023-02-15T20:05:49.414Z,96.36
2023-02-15T20:10:54.232Z,96.32
2023-02-15T20:15:58.032Z,97.30
2023-02-15T20:21:06.303Z,98.01
2023-02-15T20:26:18.457Z,97.89
2023-02-15T20:31:21.972Z,97.70
2023-02-15T20:36:29.588Z,98.54
2023-02-15T20:41:37.535Z,97.14
2023-02-15T20:46:41.138Z,95.84
2023-02-15T20:51:51.455Z,95.60
2023-02-15T20:56:56.580Z,94.60
2023-02-15T21:02:02.362Z,92.98
2023-02-15T21:07:06.369Z,91.96
2023-02-15T21:12:14.815Z,91.70
2023-02-15T21:17:18.943Z,90.47
2023-02-15T21:22:23.208Z,89.83
2023-02-15T21:27:27.945Z,90.59
2023-02-15T21:32:31.275Z,89.38
2023-02-15T21:37:38.967Z,89.94
2023-02-15T21:43:00.721Z,89.58
2023-02-15T21:48:04.073Z,89.51
2023-02-15T21:53:11.279Z,89.96
2023-02-15T21:58:21.401Z,89.66
2023-02-15T22:03:34.533Z,89.67
2023-02-15T22:08:37.955Z,89.07
2023-02-15T22:13:43.292Z,89.44
2023-02-15T22:18:48.707Z,89.46
2023-02-15T22:23:52.651Z,89.27
2023-02-15T22:28:58.288Z,88.64
2023-02-15T22:34:09.486Z,89.09
2023-02-15T22:39:13.762Z,89.26
2023-02-15T22:44:26.844Z,89.72
2023-02-15T22:49:30.781Z,90.05
2023-02-15T22:54:34.232Z,90.57
2023-02-15T22:59:39.011Z,90.26
2023-02-15T23:04:42.836Z,90.68
2023-02-15T23:09:46.279Z,91.15
2023-02-15T23:14:51.306Z,91.58
2023-02-15T23:19:54.505Z,92.08
2023-02-15T23:24:57.632Z,92.40
2023-02-15T23:30:03.452Z,92.91
2023-02-15T23:35:15.213Z,93.63
2023-02-15T23:40:38.627Z,93.77
2023-02-15T23:45:43.020Z,93.68
2023-02-15T23:50:46.242Z,93.13
2023-02-15T23:55:49.711Z,93.11
